| time (UTC) | temp C | wind direction | speed KPH | gust KPH | rain 1hr cm | rain 24hr cm | rain mn cm | humidity % | barometer mb |
| 20260509024519 | 26 | 0.0 | 6.4 | 0.00 | 0.00 | 0.00 | 69 | 1020.7 | |
| 20260509023519 | 26 | 0.0 | 3.2 | 0.00 | 0.00 | 0.00 | 69 | 1020.4 | |
| 20260509022519 | 26 | 45 | 1.6 | 6.4 | 0.00 | 0.00 | 0.00 | 70 | 1020.3 |
| 20260509021519 | 26 | 0.0 | 1.6 | 0.00 | 0.00 | 0.00 | 70 | 1020.2 | |
| 20260509020520 | 25 | 23 | 1.6 | 9.7 | 0.00 | 0.00 | 0.00 | 71 | 1020.0 |
| 20260509015519 | 25 | 0.0 | 6.4 | 0.00 | 0.00 | 0.00 | 73 | 1019.9 | |
| 20260509014519 | 24 | 0.0 | 4.8 | 0.00 | 0.00 | 0.00 | 74 | 1019.6 | |
| 20260509013519 | 24 | 0.0 | 3.2 | 0.00 | 0.00 | 0.00 | 74 | 1019.6 | |
| 20260509012519 | 24 | 0.0 | 3.2 | 0.00 | 0.00 | 0.00 | 75 | 1019.6 | |
| 20260509011519 | 23 | 0.0 | 0.0 | 0.00 | 0.00 | 0.00 | 79 | 1019.7 | |
| 20260509010519 | 23 | 0.0 | 1.6 | 0.00 | 0.00 | 0.00 | 80 | 1019.7 | |
| 20260509005559 | 23 | 0.0 | 0.0 | 0.00 | 0.00 | 0.00 | 82 | 1020.1 | |
| 20260509004539 | 22 | 0.0 | 0.0 | 0.00 | 0.00 | 0.00 | 82 | 1020.0 | |
| 20260509003519 | 22 | 0.0 | 1.6 | 0.00 | 0.00 | 0.00 | 83 | 1019.9 | |
| 20260509002519 | 22 | 0.0 | 3.2 | 0.00 | 0.00 | 0.00 | 83 | 1019.8 | |
| 20260509001519 | 22 | 0.0 | 1.6 | 0.00 | 0.00 | 0.00 | 82 | 1019.6 | |
| 20260509000519 | 22 | 0.0 | 3.2 | 0.00 | 0.00 | 0.00 | 83 | 1019.5 | |
| 20260508235519 | 22 | 0.0 | 1.6 | 0.00 | 0.00 | 0.00 | 83 | 1019.2 | |
| 20260508234539 | 22 | 0.0 | 1.6 | 0.00 | 0.00 | 0.00 | 83 | 1019.1 | |
| 20260508233519 | 22 | 0.0 | 3.2 | 0.00 | 0.00 | 0.00 | 83 | 1019.1 | |
| 20260508232519 | 22 | 0.0 | 3.2 | 0.00 | 0.00 | 0.00 | 82 | 1019.2 | |
| 20260508231519 | 23 | 0.0 | 1.6 | 0.00 | 0.00 | 0.00 | 82 | 1019.0 | |
| 20260508230519 | 23 | 0.0 | 3.2 | 0.00 | 0.00 | 0.00 | 82 | 1018.8 | |
| 20260508225519 | 23 | 0.0 | 6.4 | 0.00 | 0.00 | 0.00 | 82 | 1018.3 | |
| 20260508224519 | 23 | 0.0 | 6.4 | 0.00 | 0.00 | 0.00 | 82 | 1018.4 | |
| 20260508223519 | 23 | 0.0 | 4.8 | 0.00 | 0.00 | 0.00 | 82 | 1018.3 | |
| 20260508222519 | 23 | 0.0 | 4.8 | 0.00 | 0.00 | 0.00 | 82 | 1018.2 | |
| 20260508221518 | 23 | 0.0 | 4.8 | 0.00 | 0.00 | 0.00 | 82 | 1018.3 | |
| 20260508220518 | 23 | 0.0 | 0.0 | 0.00 | 0.00 | 0.00 | 82 | 1018.1 | |
| 20260508215539 | 23 | 0.0 | 3.2 | 0.00 | 0.00 | 0.00 | 81 | 1018.4 | |
| 20260508214518 | 23 | 0.0 | 3.2 | 0.00 | 0.00 | 0.00 | 81 | 1018.5 | |
| 20260508213519 | 23 | 0.0 | 4.8 | 0.00 | 0.00 | 0.00 | 81 | 1018.7 | |
| 20260508212518 | 23 | 68 | 1.6 | 6.4 | 0.00 | 0.00 | 0.00 | 81 | 1018.7 |
| 20260508211518 | 23 | 0.0 | 3.2 | 0.00 | 0.00 | 0.00 | 81 | 1018.7 | |
| 20260508210518 | 23 | 0.0 | 4.8 | 0.00 | 0.00 | 0.00 | 81 | 1018.7 | |
| 20260508205518 | 23 | 0.0 | 4.8 | 0.00 | 0.00 | 0.00 | 81 | 1018.6 | |
| 20260508204518 | 23 | 0.0 | 1.6 | 0.00 | 0.00 | 0.00 | 81 | 1018.6 | |
| 20260508203518 | 23 | 0.0 | 6.4 | 0.00 | 0.00 | 0.00 | 81 | 1018.6 | |
| 20260508202518 | 23 | 45 | 3.2 | 11.3 | 0.00 | 0.00 | 0.00 | 81 | 1018.7 |
| 20260508201520 | 23 | 23 | 1.6 | 9.7 | 0.00 | 0.00 | 0.00 | 81 | 1018.9 |
| 20260508200518 | 24 | 0.0 | 4.8 | 0.00 | 0.00 | 0.00 | 80 | 1018.9 | |
| 20260508195518 | 24 | 45 | 1.6 | 8.0 | 0.00 | 0.00 | 0.00 | 80 | 1019.0 |
| 20260508194518 | 24 | 45 | 1.6 | 8.0 | 0.00 | 0.00 | 0.00 | 80 | 1019.2 |
| 20260508193518 | 24 | 45 | 1.6 | 8.0 | 0.00 | 0.00 | 0.00 | 80 | 1019.2 |
| 20260508192518 | 24 | 23 | 1.6 | 9.7 | 0.00 | 0.00 | 0.00 | 79 | 1019.4 |
| 20260508191518 | 25 | 68 | 1.6 | 8.0 | 0.00 | 0.00 | 0.00 | 79 | 1019.5 |
| 20260508190518 | 25 | 90 | 3.2 | 14.5 | 0.00 | 0.00 | 0.00 | 79 | 1019.6 |
| 20260508185518 | 25 | 45 | 3.2 | 12.9 | 0.00 | 0.00 | 0.00 | 79 | 1019.5 |
| 20260508184518 | 25 | 90 | 1.6 | 12.9 | 0.00 | 0.00 | 0.00 | 78 | 1019.7 |
| 20260508183518 | 25 | 90 | 3.2 | 16.1 | 0.00 | 0.00 | 0.00 | 78 | 1019.9 |
| 20260508182518 | 25 | 45 | 1.6 | 8.0 | 0.00 | 0.00 | 0.00 | 79 | 1020.2 |
| 20260508181519 | 25 | 90 | 4.8 | 17.7 | 0.00 | 0.00 | 0.00 | 78 | 1020.4 |
| 20260508180539 | 25 | 23 | 3.2 | 12.9 | 0.00 | 0.00 | 0.00 | 78 | 1020.5 |
| 20260508175519 | 25 | 90 | 1.6 | 6.4 | 0.00 | 0.00 | 0.00 | 78 | 1020.6 |
| 20260508174559 | 25 | 45 | 4.8 | 12.9 | 0.00 | 0.00 | 0.00 | 77 | 1020.7 |
| 20260508173519 | 25 | 68 | 3.2 | 11.3 | 0.00 | 0.00 | 0.00 | 77 | 1020.6 |
| 20260508172520 | 25 | 90 | 1.6 | 6.4 | 0.00 | 0.00 | 0.00 | 78 | 1020.6 |
| 20260508171518 | 25 | 113 | 4.8 | 12.9 | 0.00 | 0.00 | 0.00 | 78 | 1020.7 |
| 20260508170519 | 25 | 113 | 6.4 | 16.1 | 0.00 | 0.00 | 0.00 | 78 | 1020.5 |
| 20260508165518 | 26 | 90 | 4.8 | 16.1 | 0.00 | 0.00 | 0.00 | 77 | 1020.7 |
| 20260508164540 | 26 | 90 | 4.8 | 17.7 | 0.00 | 0.00 | 0.00 | 77 | 1020.6 |
| 20260508163520 | 26 | 90 | 3.2 | 12.9 | 0.00 | 0.00 | 0.00 | 77 | 1020.3 |
| 20260508162518 | 26 | 90 | 3.2 | 14.5 | 0.00 | 0.00 | 0.00 | 76 | 1020.2 |
| 20260508161519 | 26 | 90 | 3.2 | 14.5 | 0.00 | 0.00 | 0.00 | 76 | 1020.1 |
| 20260508160518 | 26 | 90 | 6.4 | 22.5 | 0.00 | 0.00 | 0.00 | 76 | 1020.0 |
| 20260508155519 | 26 | 113 | 3.2 | 16.1 | 0.00 | 0.00 | 0.00 | 76 | 1020.2 |
| 20260508154539 | 26 | 45 | 4.8 | 25.7 | 0.00 | 0.00 | 0.00 | 75 | 1020.0 |
| 20260508153518 | 26 | 90 | 8.0 | 24.1 | 0.00 | 0.00 | 0.00 | 75 | 1019.5 |
| 20260508152518 | 26 | 113 | 6.4 | 22.5 | 0.00 | 0.00 | 0.00 | 74 | 1019.5 |
| 20260508151538 | 27 | 90 | 6.4 | 17.7 | 0.00 | 0.00 | 0.00 | 74 | 1019.3 |
| 20260508150558 | 27 | 113 | 4.8 | 20.9 | 0.00 | 0.00 | 0.00 | 73 | 1019.3 |
| 20260508145518 | 27 | 68 | 4.8 | 19.3 | 0.00 | 0.00 | 0.00 | 72 | 1019.1 |
| 20260508144538 | 27 | 45 | 4.8 | 17.7 | 0.00 | 0.00 | 0.00 | 71 | 1018.8 |
| 20260508143519 | 27 | 23 | 6.4 | 20.9 | 0.00 | 0.00 | 0.00 | 70 | 1018.6 |
| 20260508142538 | 27 | 90 | 6.4 | 20.9 | 0.00 | 0.00 | 0.00 | 68 | 1018.4 |
| 20260508141518 | 27 | 113 | 4.8 | 16.1 | 0.00 | 0.00 | 0.00 | 67 | 1018.3 |
| 20260508140518 | 27 | 90 | 3.2 | 9.7 | 0.00 | 0.00 | 0.00 | 64 | 1017.7 |
| 20260508135518 | 27 | 90 | 3.2 | 12.9 | 0.00 | 0.00 | 0.00 | 60 | 1017.7 |
| 20260508134518 | 28 | 68 | 4.8 | 16.1 | 0.00 | 0.00 | 0.00 | 58 | 1017.7 |
| 20260508133518 | 28 | 90 | 3.2 | 14.5 | 0.00 | 0.00 | 0.00 | 57 | 1017.5 |
| 20260508132518 | 28 | 113 | 6.4 | 19.3 | 0.00 | 0.00 | 0.00 | 57 | 1017.2 |
| 20260508131518 | 28 | 113 | 3.2 | 17.7 | 0.00 | 0.00 | 0.00 | 58 | 1017.1 |
| 20260508130518 | 28 | 90 | 12.9 | 29.0 | 0.00 | 0.00 | 0.00 | 59 | 1017.1 |
| 20260508125518 | 29 | 45 | 9.7 | 29.0 | 0.00 | 0.00 | 0.00 | 62 | 1017.1 |
| 20260508124518 | 31 | 45 | 11.3 | 27.4 | 0.00 | 0.00 | 0.00 | 60 | 1016.8 |
| 20260508123518 | 31 | 23 | 4.8 | 19.3 | 0.00 | 0.00 | 0.00 | 47 | 1016.3 |
| 20260508122518 | 31 | 45 | 4.8 | 17.7 | 0.00 | 0.00 | 0.00 | 47 | 1016.4 |
| 20260508121542 | 32 | 0 | 3.2 | 12.9 | 0.00 | 0.00 | 0.00 | 46 | 1016.4 |
| 20260508120520 | 32 | 45 | 6.4 | 17.7 | 0.00 | 0.00 | 0.00 | 46 | 1016.2 |
| 20260508115520 | 32 | 45 | 6.4 | 16.1 | 0.00 | 0.00 | 0.00 | 46 | 1016.2 |
| 20260508114540 | 32 | 45 | 4.8 | 17.7 | 0.00 | 0.00 | 0.00 | 45 | 1016.0 |
| 20260508113540 | 32 | 23 | 4.8 | 12.9 | 0.00 | 0.00 | 0.00 | 45 | 1016.3 |
| 20260508112520 | 32 | 90 | 3.2 | 14.5 | 0.00 | 0.00 | 0.00 | 46 | 1016.4 |
| 20260508111520 | 32 | 45 | 6.4 | 17.7 | 0.00 | 0.00 | 0.00 | 45 | 1016.4 |
| 20260508110520 | 32 | 45 | 4.8 | 11.3 | 0.00 | 0.00 | 0.00 | 45 | 1016.4 |
| 20260508105520 | 32 | 90 | 3.2 | 12.9 | 0.00 | 0.00 | 0.00 | 46 | 1016.3 |
| 20260508104520 | 32 | 45 | 4.8 | 12.9 | 0.00 | 0.00 | 0.00 | 46 | 1016.4 |
| 20260508103520 | 32 | 45 | 4.8 | 17.7 | 0.00 | 0.00 | 0.00 | 47 | 1016.5 |
| 20260508102518 | 32 | 23 | 1.6 | 11.3 | 0.00 | 0.00 | 0.00 | 48 | 1016.4 |
| 20260508101527 | 31 | 113 | 1.6 | 9.7 | 0.00 | 0.00 | 0.00 | 49 | 1016.5 |
| 20260508101121 | 31 | 45 | 4.8 | 14.5 | 0.00 | 0.00 | 0.00 | 49 | 1016.6 |
| 20260508100021 | 31 | 45 | 8.0 | 16.1 | 0.00 | 0.00 | 0.00 | 48 | 1016.6 |
| 20260508095635 | 32 | 23 | 4.8 | 20.9 | 0.00 | 0.00 | 0.00 | 48 | 1016.8 |
| 20260508094710 | 32 | 90 | 3.2 | 11.3 | 0.00 | 0.00 | 0.00 | 47 | 1017.0 |
| 20260508094017 | 32 | 113 | 3.2 | 9.7 | 0.00 | 0.00 | 0.00 | 47 | 1017.1 |
| 20260508093751 | 32 | 113 | 3.2 | 11.3 | 0.00 | 0.00 | 0.00 | 47 | 1016.8 |
| 20260508093019 | 32 | 45 | 1.6 | 11.3 | 0.00 | 0.00 | 0.00 | 48 | 1017.0 |
| 20260508092019 | 32 | 45 | 3.2 | 9.7 | 0.00 | 0.00 | 0.00 | 46 | 1017.0 |
| 20260508091038 | 33 | 113 | 3.2 | 11.3 | 0.00 | 0.00 | 0.00 | 47 | 1017.2 |
| 20260508090039 | 32 | 293 | 1.6 | 6.4 | 0.00 | 0.00 | 0.00 | 48 | 1017.3 |
| 20260508085019 | 32 | 135 | 1.6 | 9.7 | 0.00 | 0.00 | 0.00 | 46 | 1017.4 |
| 20260508084039 | 32 | 45 | 6.4 | 12.9 | 0.00 | 0.00 | 0.00 | 47 | 1017.6 |
| 20260508083018 | 32 | 68 | 1.6 | 11.3 | 0.00 | 0.00 | 0.00 | 48 | 1017.7 |
| 20260508082018 | 32 | 45 | 4.8 | 14.5 | 0.00 | 0.00 | 0.00 | 48 | 1017.9 |
| 20260508081518 | 32 | 90 | 3.2 | 19.3 | 0.00 | 0.00 | 0.00 | 48 | 1018.0 |
| 20260508080537 | 32 | 23 | 1.6 | 9.7 | 0.00 | 0.00 | 0.00 | 49 | 1018.2 |
| 20260508075518 | 31 | 45 | 6.4 | 12.9 | 0.00 | 0.00 | 0.00 | 49 | 1018.2 |
| 20260508074518 | 31 | 45 | 8.0 | 20.9 | 0.00 | 0.00 | 0.00 | 49 | 1018.5 |
| 20260508073538 | 31 | 45 | 4.8 | 16.1 | 0.00 | 0.00 | 0.00 | 50 | 1018.8 |
| 20260508072538 | 31 | 23 | 6.4 | 16.1 | 0.00 | 0.00 | 0.00 | 51 | 1018.8 |
| 20260508071518 | 31 | 68 | 4.8 | 17.7 | 0.00 | 0.00 | 0.00 | 49 | 1019.0 |
| 20260508070518 | 31 | 90 | 3.2 | 9.7 | 0.00 | 0.00 | 0.00 | 52 | 1019.2 |
| 20260508065519 | 31 | 23 | 4.8 | 17.7 | 0.00 | 0.00 | 0.00 | 51 | 1019.4 |
| 20260508064518 | 31 | 293 | 3.2 | 16.1 | 0.00 | 0.00 | 0.00 | 53 | 1019.5 |
| 20260508063518 | 31 | 135 | 1.6 | 6.4 | 0.00 | 0.00 | 0.00 | 54 | 1019.6 |
| 20260508062518 | 31 | 90 | 3.2 | 12.9 | 0.00 | 0.00 | 0.00 | 54 | 1019.9 |
| 20260508061627 | 30 | 23 | 3.2 | 9.7 | 0.00 | 0.00 | 0.00 | 55 | 1020.0 |
| 20260508061018 | 31 | 113 | 3.2 | 11.3 | 0.00 | 0.00 | 0.00 | 55 | 1020.2 |
| 20260508060038 | 30 | 45 | 4.8 | 14.5 | 0.00 | 0.00 | 0.00 | 57 | 1020.3 |
| 20260508055018 | 30 | 0 | 3.2 | 11.3 | 0.00 | 0.00 | 0.00 | 57 | 1020.4 |
| 20260508054018 | 30 | 0 | 3.2 | 16.1 | 0.00 | 0.00 | 0.00 | 60 | 1020.4 |
| 20260508053018 | 30 | 0.0 | 6.4 | 0.00 | 0.00 | 0.00 | 60 | 1020.9 | |
| 20260508052554 | 30 | 0.0 | 8.0 | 0.00 | 0.00 | 0.00 | 60 | 1020.7 | |
| 20260508052025 | 29 | 45 | 3.2 | 12.9 | 0.00 | 0.00 | 0.00 | 62 | 1020.7 |
| 20260508051525 | 29 | 293 | 1.6 | 8.0 | 0.00 | 0.00 | 0.00 | 62 | 1020.7 |
| 20260508051109 | 29 | 0.0 | 6.4 | 0.00 | 0.00 | 0.00 | 63 | 1020.7 | |
| 20260508050555 | 28 | 45 | 4.8 | 12.9 | 0.00 | 0.00 | 0.00 | 62 | 1020.8 |
| 20260508050112 | 29 | 45 | 3.2 | 12.9 | 0.00 | 0.00 | 0.00 | 62 | 1020.9 |
| 20260508045922 | 28 | 68 | 3.2 | 11.3 | 0.00 | 0.00 | 0.00 | 64 | 1020.8 |
| 20260508044721 | 28 | 45 | 1.6 | 8.0 | 0.00 | 0.00 | 0.00 | 64 | 1020.7 |
| 20260508044253 | 28 | 68 | 3.2 | 11.3 | 0.00 | 0.00 | 0.00 | 64 | 1020.7 |
| 20260508043518 | 28 | 90 | 3.2 | 12.9 | 0.00 | 0.00 | 0.00 | 64 | 1020.9 |
| 20260508042547 | 28 | 315 | 1.6 | 9.7 | 0.00 | 0.00 | 0.00 | 66 | 1020.7 |
| 20260508042114 | 27 | 45 | 3.2 | 9.7 | 0.00 | 0.00 | 0.00 | 68 | 1020.7 |
| 20260508041518 | 27 | 45 | 3.2 | 8.0 | 0.00 | 0.00 | 0.00 | 67 | 1020.6 |
| 20260508040518 | 27 | 45 | 4.8 | 12.9 | 0.00 | 0.00 | 0.00 | 67 | 1020.7 |
| 20260508035518 | 27 | 23 | 1.6 | 9.7 | 0.00 | 0.00 | 0.00 | 70 | 1020.9 |
| 20260508034538 | 27 | 45 | 3.2 | 14.5 | 0.00 | 0.00 | 0.00 | 69 | 1021.0 |
| 20260508033540 | 27 | 0.0 | 8.0 | 0.00 | 0.00 | 0.00 | 69 | 1020.9 | |
| 20260508032520 | 26 | 68 | 3.2 | 9.7 | 0.00 | 0.00 | 0.00 | 72 | 1020.8 |
| 20260508031520 | 26 | 180 | 1.6 | 8.0 | 0.00 | 0.00 | 0.00 | 72 | 1020.8 |
| 20260508030520 | 26 | 90 | 1.6 | 11.3 | 0.00 | 0.00 | 0.00 | 74 | 1020.9 |
| 20260508025520 | 26 | 90 | 1.6 | 11.3 | 0.00 | 0.00 | 0.00 | 75 | 1020.9 |